createdAt,value
2019-01-25T00:00:41.615Z,0.40
2019-01-25T00:03:12.587Z,0.60
2019-01-25T00:05:43.259Z,0.50
2019-01-25T00:08:13.583Z,0.50
2019-01-25T00:10:43.875Z,0.60
2019-01-25T00:13:14.936Z,0.30
2019-01-25T00:15:45.202Z,0.60
2019-01-25T00:18:15.574Z,0.20
2019-01-25T00:20:46.003Z,0.00
2019-01-25T00:23:16.768Z,0.20
2019-01-25T00:25:48.066Z,0.50
2019-01-25T00:28:18.380Z,0.50
2019-01-25T00:30:48.661Z,0.30
2019-01-25T00:33:18.946Z,0.20
2019-01-25T00:35:49.293Z,0.00
2019-01-25T00:38:20.017Z,0.10
2019-01-25T00:40:50.333Z,0.10
2019-01-25T00:43:20.981Z,0.40
2019-01-25T00:45:51.250Z,0.40
2019-01-25T00:48:21.927Z,0.20
2019-01-25T00:50:52.320Z,0.40
2019-01-25T00:53:22.619Z,0.50
2019-01-25T00:55:52.983Z,0.70
2019-01-25T00:58:23.322Z,0.60
2019-01-25T01:00:53.641Z,0.90
2019-01-25T01:03:23.843Z,0.60
2019-01-25T01:05:54.089Z,0.70
2019-01-25T01:08:27.311Z,0.40
2019-01-25T01:10:57.677Z,0.40
2019-01-25T01:13:28.361Z,0.50
2019-01-25T01:15:59.023Z,0.40
2019-01-25T01:18:29.266Z,0.20
2019-01-25T01:20:59.561Z,0.30
2019-01-25T01:23:29.795Z,0.20
2019-01-25T01:26:00.179Z,0.30
2019-01-25T01:28:30.515Z,0.00
2019-01-25T01:31:00.863Z,-0.20
2019-01-25T01:33:31.199Z,-0.10
2019-01-25T01:36:01.802Z,-0.20
2019-01-25T01:38:32.444Z,-0.20
2019-01-25T01:41:03.052Z,-0.20
2019-01-25T01:43:33.354Z,0.00
2019-01-25T01:46:03.797Z,0.10
2019-01-25T01:48:34.390Z,-0.30
2019-01-25T01:51:04.865Z,-0.50
2019-01-25T01:53:35.174Z,-0.60
2019-01-25T01:56:05.448Z,-0.50
2019-01-25T01:58:35.760Z,-0.10
2019-01-25T02:01:06.496Z,-0.30
2019-01-25T02:03:37.171Z,-0.50
2019-01-25T02:06:07.783Z,-0.10
2019-01-25T02:08:38.368Z,-0.30
2019-01-25T02:11:08.618Z,-0.30
2019-01-25T02:13:38.916Z,-0.50
2019-01-25T02:16:09.216Z,-0.30
2019-01-25T02:18:39.525Z,-0.60
2019-01-25T02:21:10.330Z,-0.40
2019-01-25T02:23:41.007Z,-0.40
2019-01-25T02:26:11.693Z,-0.10
2019-01-25T02:28:42.011Z,0.10
2019-01-25T02:31:12.634Z,-0.40
2019-01-25T02:33:42.942Z,0.00
2019-01-25T02:36:13.512Z,0.00
2019-01-25T02:38:43.972Z,-0.20
2019-01-25T02:41:14.620Z,0.40
2019-01-25T02:43:45.268Z,0.40
2019-01-25T02:46:15.525Z,0.40
2019-01-25T02:48:45.908Z,0.10
2019-01-25T02:51:16.513Z,0.10
2019-01-25T02:53:46.815Z,0.10
2019-01-25T02:56:17.109Z,0.50
2019-01-25T02:58:47.378Z,0.20
2019-01-25T03:01:18.052Z,0.20
2019-01-25T03:03:48.327Z,0.30
2019-01-25T03:06:18.663Z,0.40
2019-01-25T03:08:48.943Z,0.40
2019-01-25T03:11:19.605Z,0.10
2019-01-25T03:13:50.364Z,0.40
2019-01-25T03:16:20.678Z,0.20
2019-01-25T03:18:50.986Z,0.50
2019-01-25T03:21:21.689Z,0.40
2019-01-25T03:23:52.290Z,0.60
2019-01-25T03:26:22.533Z,0.50
2019-01-25T03:28:52.835Z,0.70
2019-01-25T03:31:23.504Z,0.70
2019-01-25T03:33:53.901Z,1.10
2019-01-25T03:36:24.148Z,0.80
2019-01-25T03:38:54.555Z,0.80
2019-01-25T03:41:24.906Z,1.00
2019-01-25T03:43:55.236Z,1.00
2019-01-25T03:46:25.488Z,0.80
2019-01-25T03:48:56.041Z,1.00
2019-01-25T03:51:26.344Z,0.70
2019-01-25T03:53:56.589Z,0.90
2019-01-25T03:56:26.896Z,1.10
2019-01-25T03:58:57.204Z,1.00
2019-01-25T04:01:27.481Z,1.00
2019-01-25T04:03:58.176Z,1.10
2019-01-25T04:06:28.887Z,1.00
2019-01-25T04:08:59.604Z,1.10
2019-01-25T04:11:29.930Z,0.80
2019-01-25T04:14:00.967Z,0.70
2019-01-25T04:16:31.222Z,0.70
2019-01-25T04:19:01.933Z,0.80
2019-01-25T04:21:32.206Z,1.10
2019-01-25T04:24:02.506Z,0.80
2019-01-25T04:26:33.073Z,1.00
2019-01-25T04:29:03.367Z,0.70
2019-01-25T04:31:33.607Z,0.90
2019-01-25T04:34:04.634Z,0.90
2019-01-25T04:36:34.898Z,1.00
2019-01-25T04:39:09.009Z,0.90
2019-01-25T04:41:39.676Z,0.90
2019-01-25T04:44:10.622Z,0.90
2019-01-25T04:46:40.926Z,0.60
2019-01-25T04:49:11.634Z,0.80
2019-01-25T04:51:42.342Z,1.00
2019-01-25T04:54:12.603Z,0.90
2019-01-25T04:56:42.882Z,0.80
2019-01-25T04:59:13.116Z,0.50
2019-01-25T05:01:43.409Z,1.10
2019-01-25T05:04:13.684Z,0.90
2019-01-25T05:06:43.884Z,1.10
2019-01-25T05:09:14.995Z,1.10
2019-01-25T05:11:45.184Z,1.10
2019-01-25T05:14:16.115Z,1.00
2019-01-25T05:16:46.334Z,1.40
2019-01-25T05:19:16.557Z,1.20
2019-01-25T05:21:46.792Z,1.30
2019-01-25T05:24:17.358Z,1.30
2019-01-25T05:26:47.616Z,1.20
2019-01-25T05:29:22.417Z,1.60
2019-01-25T05:31:52.744Z,1.40
2019-01-25T05:34:23.582Z,1.50
2019-01-25T05:36:53.647Z,1.30
2019-01-25T05:39:24.292Z,1.40
2019-01-25T05:41:54.799Z,1.30
2019-01-25T05:44:24.986Z,1.20
2019-01-25T05:46:55.147Z,1.00
2019-01-25T05:49:26.101Z,1.30
2019-01-25T05:51:56.981Z,1.30
2019-01-25T05:54:27.180Z,1.40
2019-01-25T05:56:57.414Z,1.10
2019-01-25T05:59:27.638Z,1.40
2019-01-25T06:01:57.850Z,1.00
2019-01-25T06:04:35.116Z,1.10
2019-01-25T06:07:05.709Z,1.00
2019-01-25T06:09:36.326Z,1.40
2019-01-25T06:12:06.536Z,1.40
2019-01-25T06:14:36.746Z,1.30
2019-01-25T06:17:07.537Z,1.40
2019-01-25T06:19:37.955Z,1.30
2019-01-25T06:22:08.180Z,1.40
2019-01-25T06:24:38.431Z,1.30
2019-01-25T06:27:08.638Z,1.60
2019-01-25T06:29:38.823Z,1.40
2019-01-25T06:32:09.178Z,1.20
2019-01-25T06:34:39.395Z,1.20
2019-01-25T06:37:09.932Z,1.40
2019-01-25T06:39:40.159Z,1.30
2019-01-25T06:42:10.389Z,1.40
2019-01-25T06:44:40.594Z,1.20
2019-01-25T06:47:10.833Z,1.30
2019-01-25T06:49:41.025Z,1.30
2019-01-25T06:52:11.535Z,1.30
2019-01-25T06:54:41.811Z,1.50
2019-01-25T06:57:24.898Z,1.60
2019-01-25T06:59:55.543Z,1.50
2019-01-25T07:02:33.056Z,1.30
2019-01-25T07:05:04.410Z,1.60
2019-01-25T07:07:37.247Z,1.40
2019-01-25T07:10:12.023Z,1.30
2019-01-25T07:12:42.245Z,1.40
2019-01-25T07:15:14.903Z,1.20
2019-01-25T07:17:45.072Z,1.40
2019-01-25T07:20:15.737Z,1.10
2019-01-25T07:22:46.286Z,1.30
2019-01-25T07:25:16.905Z,1.20
2019-01-25T07:27:47.114Z,1.20
2019-01-25T07:30:17.799Z,1.30
2019-01-25T07:32:48.063Z,1.60
2019-01-25T07:35:18.322Z,1.60
2019-01-25T07:37:48.527Z,1.50
2019-01-25T07:40:18.867Z,1.60
2019-01-25T07:42:49.025Z,1.50
2019-01-25T07:45:19.266Z,1.50
2019-01-25T07:47:49.812Z,1.50
2019-01-25T07:50:20.055Z,1.40
2019-01-25T07:52:50.638Z,1.60
2019-01-25T07:55:20.908Z,1.70
2019-01-25T07:57:51.170Z,1.70
2019-01-25T08:00:22.212Z,1.50
2019-01-25T08:02:52.393Z,1.30
2019-01-25T08:05:22.596Z,1.40
2019-01-25T08:07:52.883Z,1.40
2019-01-25T08:10:23.521Z,1.40
2019-01-25T08:12:53.766Z,1.40
2019-01-25T08:15:24.303Z,1.40
2019-01-25T08:17:54.700Z,1.40
2019-01-25T08:20:25.368Z,1.60
2019-01-25T08:22:55.557Z,1.60
2019-01-25T08:25:26.036Z,1.50
2019-01-25T08:27:56.337Z,1.60
2019-01-25T08:30:26.642Z,1.70
2019-01-25T08:32:56.984Z,1.80
2019-01-25T08:35:27.647Z,1.70
2019-01-25T08:37:57.906Z,1.90
2019-01-25T08:40:28.424Z,1.80
2019-01-25T08:42:58.829Z,1.80
2019-01-25T08:45:29.473Z,1.80
2019-01-25T08:47:59.770Z,1.90
2019-01-25T08:50:29.976Z,2.00
2019-01-25T08:53:00.204Z,1.80
2019-01-25T08:55:30.836Z,2.00
2019-01-25T08:58:01.703Z,1.80
2019-01-25T09:00:31.978Z,2.10
2019-01-25T09:03:02.237Z,2.10
2019-01-25T09:05:32.907Z,1.80
2019-01-25T09:08:03.193Z,1.80
2019-01-25T09:10:33.411Z,2.20
2019-01-25T09:13:04.670Z,2.00
2019-01-25T09:15:35.135Z,2.20
2019-01-25T09:18:05.890Z,2.00
2019-01-25T09:20:36.156Z,2.40
2019-01-25T09:23:06.293Z,2.20
2019-01-25T09:25:36.506Z,2.00
2019-01-25T09:28:06.982Z,2.10
2019-01-25T09:30:37.893Z,2.00
2019-01-25T09:33:08.014Z,2.30
2019-01-25T09:35:38.234Z,2.20
2019-01-25T09:38:09.034Z,2.10
2019-01-25T09:40:39.273Z,2.00
2019-01-25T09:43:09.947Z,2.20
2019-01-25T09:45:40.587Z,2.10
2019-01-25T09:48:10.829Z,2.10
2019-01-25T09:50:41.316Z,2.20
2019-01-25T09:53:12.303Z,1.90
2019-01-25T09:55:42.988Z,2.20
2019-01-25T09:58:15.405Z,2.10
2019-01-25T10:00:49.641Z,2.20
2019-01-25T10:03:19.968Z,2.40
2019-01-25T10:05:50.341Z,2.20
2019-01-25T10:08:20.974Z,2.30
2019-01-25T10:10:51.166Z,2.60
2019-01-25T10:13:21.380Z,2.70
2019-01-25T10:15:52.038Z,2.70
2019-01-25T10:18:24.834Z,2.90
2019-01-25T10:20:54.153Z,2.80
2019-01-25T10:23:24.449Z,3.00
2019-01-25T10:25:54.743Z,2.60
2019-01-25T10:28:25.262Z,2.80
2019-01-25T10:30:55.523Z,2.90
2019-01-25T10:33:26.243Z,2.60
2019-01-25T10:35:56.753Z,2.90
2019-01-25T10:38:26.995Z,2.70
2019-01-25T10:40:57.280Z,2.70
2019-01-25T10:43:28.022Z,2.80
2019-01-25T10:45:58.464Z,2.80
2019-01-25T10:48:28.649Z,3.00
2019-01-25T10:50:58.890Z,2.90
2019-01-25T10:53:29.573Z,2.40
2019-01-25T10:56:00.251Z,2.60
2019-01-25T10:58:30.567Z,2.70
2019-01-25T11:01:01.528Z,2.60
2019-01-25T11:03:32.405Z,2.90
2019-01-25T11:06:03.121Z,2.90
2019-01-25T11:08:33.633Z,2.90
2019-01-25T11:11:04.865Z,3.00
2019-01-25T11:13:35.508Z,3.00
2019-01-25T11:16:06.148Z,3.20
2019-01-25T11:18:36.902Z,3.10
2019-01-25T11:21:07.105Z,3.10
2019-01-25T11:23:37.330Z,3.00
2019-01-25T11:26:07.999Z,2.90
2019-01-25T11:28:38.173Z,3.10
2019-01-25T11:31:08.697Z,3.30
2019-01-25T11:33:39.233Z,3.30
2019-01-25T11:36:09.494Z,3.20
2019-01-25T11:38:39.674Z,3.20
2019-01-25T11:41:10.233Z,3.20
2019-01-25T11:43:40.481Z,3.50
2019-01-25T11:46:10.739Z,3.20
2019-01-25T11:48:40.979Z,3.30
2019-01-25T11:51:11.554Z,3.40
2019-01-25T11:53:41.801Z,3.40
2019-01-25T11:56:11.984Z,3.70
2019-01-25T11:58:42.111Z,3.50
2019-01-25T12:01:12.717Z,3.50
2019-01-25T12:03:42.908Z,3.30
2019-01-25T12:06:13.108Z,3.40
2019-01-25T12:08:43.487Z,3.50
2019-01-25T12:11:13.709Z,3.30
2019-01-25T12:13:44.170Z,3.40
2019-01-25T12:16:14.429Z,3.40
2019-01-25T12:18:44.703Z,3.50
2019-01-25T12:21:15.384Z,3.50
2019-01-25T12:23:45.804Z,3.40
2019-01-25T12:26:16.694Z,3.70
2019-01-25T12:28:46.894Z,3.40
2019-01-25T12:31:17.562Z,3.30
2019-01-25T12:33:47.721Z,3.50
2019-01-25T12:36:18.299Z,3.80
2019-01-25T12:38:48.814Z,3.50
2019-01-25T12:41:19.093Z,3.50
2019-01-25T12:43:49.592Z,3.60
2019-01-25T12:46:19.836Z,3.40
2019-01-25T12:48:50.130Z,3.30
2019-01-25T12:51:27.577Z,3.60
2019-01-25T12:53:58.321Z,3.30
2019-01-25T12:56:28.858Z,3.40
2019-01-25T12:58:59.367Z,3.50
2019-01-25T13:01:35.688Z,3.30
2019-01-25T13:04:05.933Z,3.30
2019-01-25T13:06:37.639Z,3.30
2019-01-25T13:09:10.396Z,3.20
2019-01-25T13:11:40.665Z,3.40
2019-01-25T13:14:10.896Z,3.30
2019-01-25T13:16:41.869Z,3.10
2019-01-25T13:19:12.198Z,3.50
2019-01-25T13:21:42.381Z,3.40
2019-01-25T13:24:12.689Z,3.30
2019-01-25T13:26:42.939Z,3.30
2019-01-25T13:29:13.518Z,3.40
2019-01-25T13:31:44.328Z,3.60
2019-01-25T13:34:14.876Z,3.40
2019-01-25T13:36:45.082Z,3.20
2019-01-25T13:39:15.563Z,3.50
2019-01-25T13:41:46.230Z,3.20
2019-01-25T13:44:16.514Z,3.50
2019-01-25T13:46:46.754Z,3.30
2019-01-25T13:49:16.931Z,3.40
2019-01-25T13:51:47.143Z,3.40
2019-01-25T13:54:17.424Z,3.50
2019-01-25T13:56:47.648Z,3.20
2019-01-25T13:59:18.354Z,3.20
2019-01-25T14:01:48.588Z,3.30
2019-01-25T14:04:18.781Z,3.40
2019-01-25T14:06:49.709Z,3.30
2019-01-25T14:09:20.260Z,3.30
2019-01-25T14:11:50.623Z,3.60
2019-01-25T14:14:21.441Z,3.20
2019-01-25T14:16:51.585Z,3.40
2019-01-25T14:19:22.084Z,3.60
2019-01-25T14:21:52.602Z,3.60
2019-01-25T14:24:22.824Z,3.40
2019-01-25T14:26:53.033Z,3.40
2019-01-25T14:29:23.300Z,3.60
2019-01-25T14:31:53.934Z,3.40
2019-01-25T14:34:24.686Z,3.30
2019-01-25T14:36:54.948Z,3.60
2019-01-25T14:39:25.064Z,3.80
2019-01-25T14:41:55.351Z,3.70
2019-01-25T14:44:26.112Z,3.70
2019-01-25T14:46:56.343Z,3.50
2019-01-25T14:49:26.575Z,3.50
2019-01-25T14:51:56.827Z,3.30
2019-01-25T14:54:27.139Z,3.80
2019-01-25T14:56:57.425Z,3.70
2019-01-25T14:59:27.696Z,3.70
2019-01-25T15:01:57.930Z,3.70
2019-01-25T15:04:28.245Z,3.80
2019-01-25T15:06:59.096Z,3.50
2019-01-25T15:09:29.290Z,3.60
2019-01-25T15:11:59.512Z,3.60
2019-01-25T15:14:30.210Z,3.70
2019-01-25T15:17:00.410Z,3.70
2019-01-25T15:19:30.689Z,3.50
2019-01-25T15:22:00.840Z,3.80
2019-01-25T15:24:31.937Z,3.70
2019-01-25T15:27:02.530Z,3.50
2019-01-25T15:29:32.865Z,3.60
2019-01-25T15:32:03.106Z,3.90
2019-01-25T15:34:33.614Z,4.00
2019-01-25T15:37:04.759Z,3.90
2019-01-25T15:39:35.340Z,3.90
2019-01-25T15:42:08.065Z,4.00
2019-01-25T15:44:38.261Z,4.00
2019-01-25T15:47:08.545Z,3.90
2019-01-25T15:49:39.092Z,4.00
2019-01-25T15:52:09.893Z,3.80
2019-01-25T15:54:40.665Z,4.10
2019-01-25T15:57:11.350Z,4.20
2019-01-25T15:59:41.894Z,4.30
2019-01-25T16:02:12.604Z,4.10
2019-01-25T16:04:42.827Z,4.20
2019-01-25T16:07:13.084Z,4.20
2019-01-25T16:09:43.838Z,4.30
2019-01-25T16:12:14.308Z,4.20
2019-01-25T16:14:44.829Z,4.50
2019-01-25T16:17:15.062Z,4.50
2019-01-25T16:19:45.326Z,4.40
2019-01-25T16:22:15.565Z,4.20
2019-01-25T16:24:46.230Z,4.60
2019-01-25T16:27:16.707Z,4.40
2019-01-25T16:29:47.043Z,4.20
2019-01-25T16:32:17.220Z,4.20
2019-01-25T16:34:47.981Z,4.00
2019-01-25T16:37:18.263Z,4.00
2019-01-25T16:39:48.494Z,4.40
2019-01-25T16:42:19.136Z,4.40
2019-01-25T16:44:49.350Z,4.10
2019-01-25T16:47:19.485Z,4.40
2019-01-25T16:49:49.669Z,4.40
2019-01-25T16:52:20.497Z,4.70
2019-01-25T16:54:50.718Z,4.80
2019-01-25T16:57:20.920Z,4.60
2019-01-25T16:59:51.076Z,4.80
2019-01-25T17:02:21.316Z,4.50
2019-01-25T17:04:52.122Z,4.80
2019-01-25T17:07:22.704Z,4.80
2019-01-25T17:09:53.234Z,4.60
2019-01-25T17:12:23.450Z,5.10
2019-01-25T17:14:53.710Z,4.90
2019-01-25T17:17:24.239Z,4.80
2019-01-25T17:19:54.440Z,4.70
2019-01-25T17:22:24.629Z,4.80
2019-01-25T17:24:55.152Z,4.90
2019-01-25T17:27:25.359Z,4.90
2019-01-25T17:29:55.583Z,4.90
2019-01-25T17:32:25.711Z,4.80
2019-01-25T17:34:55.920Z,4.70
2019-01-25T17:37:26.023Z,4.70
2019-01-25T17:39:56.588Z,4.70
2019-01-25T17:42:28.172Z,4.70
2019-01-25T17:44:58.798Z,4.60
2019-01-25T17:47:29.723Z,5.10
2019-01-25T17:50:00.273Z,4.80
2019-01-25T17:52:30.762Z,5.00
2019-01-25T17:55:01.273Z,5.00
2019-01-25T17:57:31.485Z,4.90
2019-01-25T18:00:01.669Z,4.80
2019-01-25T18:02:32.247Z,5.00
2019-01-25T18:05:02.388Z,5.10
2019-01-25T18:07:32.645Z,4.80
2019-01-25T18:10:02.906Z,4.90
2019-01-25T18:12:33.078Z,5.00
2019-01-25T18:15:03.552Z,5.20
2019-01-25T18:17:33.798Z,5.20
2019-01-25T18:20:04.534Z,5.20
2019-01-25T18:22:34.787Z,5.10
2019-01-25T18:25:06.094Z,4.90
2019-01-25T18:27:36.248Z,5.20
2019-01-25T18:30:14.025Z,4.90
2019-01-25T18:32:44.212Z,5.20
2019-01-25T18:35:14.440Z,5.20
2019-01-25T18:37:45.047Z,5.50
2019-01-25T18:40:15.744Z,5.30
2019-01-25T18:42:45.902Z,5.60
2019-01-25T18:45:16.139Z,5.60
2019-01-25T18:47:46.368Z,5.80
2019-01-25T18:50:17.262Z,5.80
2019-01-25T18:52:47.447Z,5.50
2019-01-25T18:55:19.226Z,5.60
2019-01-25T18:57:49.388Z,6.00
2019-01-25T19:00:20.623Z,5.80
2019-01-25T19:02:50.934Z,5.50
2019-01-25T19:05:21.506Z,5.60
2019-01-25T19:07:51.751Z,5.40
2019-01-25T19:10:24.017Z,5.50
2019-01-25T19:12:54.286Z,5.30
2019-01-25T19:15:26.740Z,5.60
2019-01-25T19:17:56.845Z,5.80
2019-01-25T19:20:27.563Z,5.60
2019-01-25T19:22:57.772Z,5.70
2019-01-25T19:25:28.217Z,5.60
2019-01-25T19:27:58.426Z,5.60
2019-01-25T19:30:31.245Z,5.80
2019-01-25T19:33:01.958Z,5.80
2019-01-25T19:35:32.202Z,5.70
2019-01-25T19:38:02.399Z,5.50
2019-01-25T19:40:33.431Z,5.60
2019-01-25T19:43:04.310Z,5.80
2019-01-25T19:45:34.492Z,5.80
2019-01-25T19:48:05.501Z,6.30
2019-01-25T19:50:35.988Z,6.00
2019-01-25T19:53:06.780Z,5.90
2019-01-25T19:55:37.088Z,6.10
2019-01-25T19:58:09.142Z,5.70
2019-01-25T20:00:40.654Z,5.60
2019-01-25T20:03:11.366Z,5.90
2019-01-25T20:05:41.587Z,5.60
2019-01-25T20:08:12.047Z,6.10
2019-01-25T20:10:42.651Z,6.10
2019-01-25T20:13:13.496Z,5.80
2019-01-25T20:15:43.669Z,5.70
2019-01-25T20:18:14.277Z,5.70
2019-01-25T20:20:44.487Z,5.60
2019-01-25T20:23:14.776Z,5.50
2019-01-25T20:25:45.072Z,5.80
2019-01-25T20:28:15.271Z,5.80
2019-01-25T20:30:49.756Z,5.60
2019-01-25T20:33:17.636Z,5.60
2019-01-25T20:35:47.822Z,5.70
2019-01-25T20:38:18.049Z,5.50
2019-01-25T20:40:48.253Z,5.60
2019-01-25T20:43:18.442Z,5.80
2019-01-25T20:45:48.684Z,5.90
2019-01-25T20:48:20.497Z,5.80
2019-01-25T20:50:51.172Z,5.80
2019-01-25T20:53:21.426Z,5.80
2019-01-25T20:55:52.294Z,5.60
2019-01-25T20:58:22.472Z,5.60
2019-01-25T21:00:52.792Z,5.70
2019-01-25T21:03:23.322Z,5.40
2019-01-25T21:05:53.652Z,5.50
2019-01-25T21:08:23.895Z,5.40
2019-01-25T21:10:54.130Z,5.40
2019-01-25T21:13:24.367Z,5.50
2019-01-25T21:15:55.318Z,5.50
2019-01-25T21:18:25.493Z,5.80
2019-01-25T21:20:55.750Z,5.40
2019-01-25T21:23:26.320Z,5.30
2019-01-25T21:25:56.540Z,5.20
2019-01-25T21:28:26.812Z,5.30
2019-01-25T21:30:57.643Z,5.10
2019-01-25T21:33:27.886Z,5.50
2019-01-25T21:35:58.313Z,5.50
2019-01-25T21:38:29.760Z,5.50
2019-01-25T21:41:00.314Z,5.60
2019-01-25T21:43:30.563Z,5.80
2019-01-25T21:46:00.821Z,5.60
2019-01-25T21:48:31.017Z,5.60
2019-01-25T21:51:01.281Z,5.70
2019-01-25T21:53:31.662Z,6.00
2019-01-25T21:56:01.837Z,5.90
2019-01-25T21:58:32.096Z,5.90
2019-01-25T22:01:02.652Z,6.20
2019-01-25T22:03:33.039Z,6.30
2019-01-25T22:06:03.243Z,6.10
2019-01-25T22:08:33.439Z,6.50
2019-01-25T22:11:03.571Z,6.30
2019-01-25T22:13:34.437Z,6.30
2019-01-25T22:16:04.760Z,6.60
2019-01-25T22:18:34.997Z,6.50
2019-01-25T22:21:05.574Z,6.40
2019-01-25T22:23:35.690Z,6.70
2019-01-25T22:26:06.005Z,6.70
2019-01-25T22:28:36.547Z,7.00
2019-01-25T22:31:07.228Z,6.70
2019-01-25T22:33:37.455Z,6.60
2019-01-25T22:36:08.037Z,6.60
2019-01-25T22:38:38.222Z,6.90
2019-01-25T22:41:08.873Z,6.90
2019-01-25T22:43:39.382Z,6.70
2019-01-25T22:46:09.581Z,6.60
2019-01-25T22:48:40.203Z,6.60
2019-01-25T22:51:11.150Z,7.00
2019-01-25T22:53:41.686Z,6.80
2019-01-25T22:56:12.206Z,6.80
2019-01-25T22:58:42.708Z,6.70
2019-01-25T23:01:40.510Z,6.90
2019-01-25T23:04:31.262Z,6.70
2019-01-25T23:07:10.702Z,6.70
2019-01-25T23:09:52.316Z,6.60
2019-01-25T23:12:22.488Z,6.80
2019-01-25T23:14:53.657Z,6.70
2019-01-25T23:17:23.985Z,6.70
2019-01-25T23:19:54.195Z,6.60
2019-01-25T23:22:24.687Z,7.00
2019-01-25T23:24:55.153Z,6.60
2019-01-25T23:27:25.371Z,6.60
2019-01-25T23:29:56.217Z,6.90
2019-01-25T23:32:26.666Z,6.60
2019-01-25T23:34:56.806Z,6.80
2019-01-25T23:37:27.378Z,6.80
2019-01-25T23:39:57.878Z,7.10
2019-01-25T23:42:28.515Z,6.80
2019-01-25T23:44:58.735Z,6.70
2019-01-25T23:47:28.965Z,7.00
2019-01-25T23:49:59.151Z,6.90
2019-01-25T23:52:29.505Z,6.80
2019-01-25T23:54:59.740Z,6.80
2019-01-25T23:57:30.418Z,6.90
